createdAt,value
2018-09-04T00:00:14.552Z,11.17
2018-09-04T00:02:43.571Z,10.33
2018-09-04T00:05:12.281Z,10.47
2018-09-04T00:07:40.944Z,12.23
2018-09-04T00:10:09.693Z,12.50
2018-09-04T00:12:38.445Z,10.57
2018-09-04T00:15:07.212Z,13.93
2018-09-04T00:17:35.976Z,11.63
2018-09-04T00:20:05.198Z,10.70
2018-09-04T00:22:33.832Z,11.60
2018-09-04T00:25:02.621Z,10.27
2018-09-04T00:27:31.347Z,10.50
2018-09-04T00:30:00.028Z,11.27
2018-09-04T00:32:28.716Z,10.03
2018-09-04T00:34:57.677Z,11.37
2018-09-04T00:37:26.608Z,10.00
2018-09-04T00:39:55.344Z,10.10
2018-09-04T00:42:24.044Z,12.37
2018-09-04T00:44:52.926Z,11.77
2018-09-04T00:47:21.706Z,10.60
2018-09-04T00:49:50.375Z,10.67
2018-09-04T00:52:19.204Z,10.87
2018-09-04T00:54:47.884Z,10.63
2018-09-04T00:57:16.531Z,11.90
2018-09-04T00:59:51.787Z,12.53
2018-09-04T01:02:20.520Z,11.63
2018-09-04T01:04:49.520Z,10.07
2018-09-04T01:07:19.246Z,10.27
2018-09-04T01:09:48.204Z,10.50
2018-09-04T01:12:16.907Z,11.80
2018-09-04T01:14:45.608Z,10.57
2018-09-04T01:17:14.384Z,12.77
2018-09-04T01:19:43.175Z,11.47
2018-09-04T01:22:11.897Z,9.83
2018-09-04T01:24:40.700Z,9.93
2018-09-04T01:27:09.388Z,10.80
2018-09-04T01:29:38.086Z,11.27
2018-09-04T01:32:07.206Z,11.73
2018-09-04T01:34:35.887Z,11.57
2018-09-04T01:37:04.934Z,11.53
2018-09-04T01:39:33.736Z,10.37
2018-09-04T01:42:02.658Z,12.03
2018-09-04T01:44:31.407Z,10.77
2018-09-04T01:47:00.122Z,11.33
2018-09-04T01:49:28.956Z,11.37
2018-09-04T01:51:57.699Z,11.30
2018-09-04T01:54:26.378Z,11.03
2018-09-04T01:56:55.151Z,11.73
2018-09-04T01:59:23.865Z,11.83
2018-09-04T02:01:53.053Z,10.23
2018-09-04T02:04:22.028Z,10.37
2018-09-04T02:06:50.798Z,11.40
2018-09-04T02:09:19.564Z,11.10
2018-09-04T02:11:48.432Z,12.50
2018-09-04T02:14:17.179Z,11.33
2018-09-04T02:16:45.899Z,11.87
2018-09-04T02:19:14.592Z,10.90
2018-09-04T02:21:43.254Z,10.93
2018-09-04T02:24:12.080Z,11.87
2018-09-04T02:26:40.752Z,13.50
2018-09-04T02:29:09.459Z,12.40
2018-09-04T02:31:38.167Z,11.93
2018-09-04T02:34:06.831Z,14.00
2018-09-04T02:36:35.592Z,11.77
2018-09-04T02:39:06.511Z,11.33
2018-09-04T02:41:35.222Z,11.03
2018-09-04T02:44:04.834Z,11.83
2018-09-04T02:46:33.516Z,10.63
2018-09-04T02:49:02.358Z,11.37
2018-09-04T02:51:31.033Z,11.93
2018-09-04T02:53:59.816Z,13.13
2018-09-04T02:56:28.507Z,12.23
2018-09-04T02:58:57.264Z,11.07
2018-09-04T03:01:26.556Z,11.60
2018-09-04T03:03:55.217Z,11.33
2018-09-04T03:06:23.938Z,10.93
2018-09-04T03:08:52.812Z,11.03
2018-09-04T03:11:21.678Z,10.70
2018-09-04T03:13:50.418Z,11.47
2018-09-04T03:16:19.332Z,10.77
2018-09-04T03:18:48.163Z,9.93
2018-09-04T03:21:16.840Z,12.60
2018-09-04T03:23:45.535Z,11.97
2018-09-04T03:26:14.212Z,11.80
2018-09-04T03:28:42.908Z,10.47
2018-09-04T03:31:11.716Z,10.60
2018-09-04T03:33:40.420Z,11.10
2018-09-04T03:36:09.116Z,11.23
2018-09-04T03:38:37.808Z,12.13
2018-09-04T03:41:06.512Z,10.67
2018-09-04T03:43:35.611Z,10.83
2018-09-04T03:46:04.388Z,11.07
2018-09-04T03:48:33.138Z,10.20
2018-09-04T03:51:02.025Z,11.27
2018-09-04T03:53:30.698Z,11.20
2018-09-04T03:55:59.362Z,11.33
2018-09-04T03:58:28.213Z,10.70
2018-09-04T04:00:56.950Z,12.47
2018-09-04T04:03:25.634Z,10.63
2018-09-04T04:05:54.300Z,10.93
2018-09-04T04:08:23.088Z,11.67
2018-09-04T04:10:51.758Z,11.17
2018-09-04T04:13:20.444Z,12.00
2018-09-04T04:15:49.184Z,12.30
2018-09-04T04:18:17.913Z,10.77
2018-09-04T04:20:55.983Z,12.00
2018-09-04T04:23:24.702Z,11.27
2018-09-04T04:25:53.423Z,12.20
2018-09-04T04:28:22.416Z,13.13
2018-09-04T04:30:51.090Z,11.47
2018-09-04T04:33:19.851Z,11.07
2018-09-04T04:35:48.599Z,11.67
2018-09-04T04:38:17.392Z,11.20
2018-09-04T04:40:46.092Z,11.60
2018-09-04T04:43:14.829Z,11.90
2018-09-04T04:45:43.691Z,11.37
2018-09-04T04:48:12.471Z,11.93
2018-09-04T04:50:41.155Z,11.43
2018-09-04T04:53:09.805Z,13.33
2018-09-04T04:55:38.478Z,13.20
2018-09-04T04:58:07.274Z,12.33
2018-09-04T05:00:36.028Z,12.23
2018-09-04T05:03:05.200Z,12.17
2018-09-04T05:05:34.213Z,13.00
2018-09-04T05:08:02.927Z,12.40
2018-09-04T05:10:31.621Z,11.20
2018-09-04T05:13:00.399Z,11.50
2018-09-04T05:15:29.127Z,11.57
2018-09-04T05:17:57.895Z,12.27
2018-09-04T05:20:28.369Z,11.77
2018-09-04T05:22:57.065Z,12.10
2018-09-04T05:25:25.769Z,11.80
2018-09-04T05:27:54.434Z,11.23
2018-09-04T05:30:23.233Z,11.57
2018-09-04T05:32:59.951Z,11.77
2018-09-04T05:35:32.563Z,12.23
2018-09-04T05:38:01.246Z,11.63
2018-09-04T05:40:29.915Z,11.90
2018-09-04T05:43:01.089Z,12.53
2018-09-04T05:45:31.170Z,14.07
2018-09-04T05:48:00.099Z,12.47
2018-09-04T05:50:28.887Z,12.13
2018-09-04T05:52:58.239Z,13.33
2018-09-04T05:55:26.953Z,12.37
2018-09-04T05:57:55.986Z,11.73
2018-09-04T06:00:28.973Z,13.60
2018-09-04T06:02:57.831Z,12.77
2018-09-04T06:05:26.884Z,12.07
2018-09-04T06:07:55.925Z,12.77
2018-09-04T06:10:24.711Z,13.07
2018-09-04T06:12:53.481Z,12.17
2018-09-04T06:15:22.387Z,12.70
2018-09-04T06:17:51.125Z,12.97
2018-09-04T06:20:19.861Z,12.57
2018-09-04T06:22:48.715Z,11.40
2018-09-04T06:25:17.412Z,11.93
2018-09-04T06:27:46.090Z,13.90
2018-09-04T06:30:15.335Z,11.07
2018-09-04T06:32:44.052Z,12.47
2018-09-04T06:35:12.936Z,13.03
2018-09-04T06:37:41.824Z,12.03
2018-09-04T06:40:10.518Z,11.97
2018-09-04T06:42:39.211Z,12.77
2018-09-04T06:45:08.203Z,17.17
2018-09-04T06:47:37.291Z,11.80
2018-09-04T06:50:06.288Z,14.80
2018-09-04T06:52:34.979Z,12.63
2018-09-04T06:55:03.677Z,12.47
2018-09-04T06:57:32.446Z,13.73
2018-09-04T07:00:01.199Z,12.43
2018-09-04T07:02:29.921Z,19.73
2018-09-04T07:04:58.635Z,15.73
2018-09-04T07:07:27.408Z,13.07
2018-09-04T07:09:56.326Z,13.53
2018-09-04T07:12:26.017Z,14.07
2018-09-04T07:14:54.806Z,12.93
2018-09-04T07:17:23.549Z,13.50
2018-09-04T07:19:52.308Z,13.17
2018-09-04T07:22:21.074Z,12.93
2018-09-04T07:24:49.790Z,12.37
2018-09-04T07:27:18.597Z,13.50
2018-09-04T07:29:47.489Z,12.63
2018-09-04T07:32:16.214Z,13.33
2018-09-04T07:34:44.923Z,12.33
2018-09-04T07:37:13.695Z,13.87
2018-09-04T07:39:42.425Z,13.40
2018-09-04T07:42:11.457Z,15.20
2018-09-04T07:44:40.287Z,13.33
2018-09-04T07:47:08.974Z,12.73
2018-09-04T07:49:37.690Z,14.30
2018-09-04T07:52:06.989Z,13.73
2018-09-04T07:54:36.090Z,13.50
2018-09-04T07:57:04.761Z,12.90
2018-09-04T07:59:33.503Z,13.33
2018-09-04T08:02:02.252Z,15.93
2018-09-04T08:04:30.928Z,16.80
2018-09-04T08:06:59.625Z,14.10
2018-09-04T08:09:28.355Z,12.30
2018-09-04T08:11:57.055Z,12.40
2018-09-04T08:14:26.265Z,13.37
2018-09-04T08:16:54.957Z,13.87
2018-09-04T08:19:23.714Z,13.17
2018-09-04T08:21:52.434Z,11.97
2018-09-04T08:24:21.180Z,12.50
2018-09-04T08:26:50.003Z,12.73
2018-09-04T08:29:18.715Z,12.13
2018-09-04T08:31:47.661Z,11.83
2018-09-04T08:34:16.571Z,14.77
2018-09-04T08:36:45.290Z,12.77
2018-09-04T08:39:14.011Z,12.03
2018-09-04T08:41:42.687Z,12.30
2018-09-04T08:44:17.660Z,11.83
2018-09-04T08:46:46.350Z,12.90
2018-09-04T08:49:15.022Z,11.37
2018-09-04T08:51:43.699Z,15.80
2018-09-04T08:54:12.391Z,11.90
2018-09-04T08:56:41.075Z,13.97
2018-09-04T08:59:09.793Z,13.50
2018-09-04T09:01:38.552Z,13.30
2018-09-04T09:04:07.282Z,11.97
2018-09-04T09:06:36.041Z,9.97
2018-09-04T09:09:06.628Z,15.33
2018-09-04T09:11:35.334Z,12.43
2018-09-04T09:14:04.021Z,12.80
2018-09-04T09:16:32.796Z,12.77
2018-09-04T09:19:01.734Z,13.03
2018-09-04T09:21:30.650Z,12.60
2018-09-04T09:23:59.375Z,13.07
2018-09-04T09:26:28.084Z,12.47
2018-09-04T09:28:56.834Z,13.30
2018-09-04T09:31:26.207Z,14.70
2018-09-04T09:33:54.931Z,12.20
2018-09-04T09:36:23.712Z,11.90
2018-09-04T09:38:52.447Z,13.47
2018-09-04T09:41:21.120Z,12.50
2018-09-04T09:43:49.841Z,15.00
2018-09-04T09:46:18.593Z,13.67
2018-09-04T09:48:47.324Z,15.27
2018-09-04T09:51:16.027Z,16.03
2018-09-04T09:53:44.740Z,14.27
2018-09-04T09:56:13.517Z,15.80
2018-09-04T09:58:42.235Z,10.57
2018-09-04T10:01:16.159Z,13.80
2018-09-04T10:03:50.388Z,13.50
2018-09-04T10:06:20.096Z,11.87
2018-09-04T10:08:49.105Z,11.17
2018-09-04T10:11:17.812Z,11.63
2018-09-04T10:13:46.939Z,10.20
2018-09-04T10:16:15.696Z,13.33
2018-09-04T10:18:44.429Z,11.40
2018-09-04T10:21:13.253Z,13.33
2018-09-04T10:23:42.027Z,12.13
2018-09-04T10:26:10.789Z,12.73
2018-09-04T10:28:39.501Z,13.47
2018-09-04T10:31:08.506Z,13.83
2018-09-04T10:33:37.333Z,13.70
2018-09-04T10:36:06.189Z,15.73
2018-09-04T10:38:34.959Z,13.47
2018-09-04T10:41:04.805Z,16.27
2018-09-04T10:43:33.549Z,17.73
2018-09-04T10:46:05.188Z,18.63
2018-09-04T10:48:33.900Z,17.80
2018-09-04T10:51:02.800Z,17.13
2018-09-04T10:53:31.511Z,15.40
2018-09-04T10:56:00.285Z,15.90
2018-09-04T10:58:29.286Z,14.40
2018-09-04T11:00:57.965Z,16.53
2018-09-04T11:03:26.969Z,14.57
2018-09-04T11:05:55.760Z,16.47
2018-09-04T11:08:24.464Z,15.97
2018-09-04T11:10:53.231Z,12.97
2018-09-04T11:13:22.020Z,12.57
2018-09-04T11:15:50.843Z,13.30
2018-09-04T11:18:19.543Z,12.10
2018-09-04T11:20:48.281Z,14.47
2018-09-04T11:23:17.177Z,15.53
2018-09-04T11:25:45.947Z,16.70
2018-09-04T11:28:14.647Z,15.73
2018-09-04T11:30:43.395Z,15.60
2018-09-04T11:33:12.292Z,17.83
2018-09-04T11:35:41.077Z,16.40
2018-09-04T11:38:09.843Z,14.73
2018-09-04T11:40:38.625Z,15.83
2018-09-04T11:43:07.981Z,15.80
2018-09-04T11:45:36.921Z,15.87
2018-09-04T11:48:05.849Z,13.90
2018-09-04T11:50:34.636Z,15.20
2018-09-04T11:53:03.460Z,17.20
2018-09-04T11:55:32.181Z,15.90
2018-09-04T11:58:00.919Z,15.00
2018-09-04T12:00:34.637Z,17.87
2018-09-04T12:03:03.787Z,14.03
2018-09-04T12:05:32.545Z,15.60
2018-09-04T12:08:01.243Z,16.87
2018-09-04T12:10:29.885Z,15.70
2018-09-04T12:12:58.570Z,16.53
2018-09-04T12:15:27.190Z,15.63
2018-09-04T12:17:55.865Z,16.03
2018-09-04T12:20:43.487Z,17.77
2018-09-04T12:23:12.215Z,17.17
2018-09-04T12:25:41.573Z,15.67
2018-09-04T12:28:10.231Z,15.83
2018-09-04T12:30:39.135Z,16.77
2018-09-04T12:33:07.922Z,16.60
2018-09-04T12:35:36.573Z,16.70
2018-09-04T12:38:05.909Z,16.40
2018-09-04T12:40:34.621Z,17.80
2018-09-04T12:43:03.923Z,19.97
2018-09-04T12:45:37.996Z,21.90
2018-09-04T12:48:06.918Z,18.17
2018-09-04T12:50:36.315Z,20.03
2018-09-04T12:53:05.011Z,19.87
2018-09-04T12:55:33.752Z,19.30
2018-09-04T12:58:02.436Z,20.90
2018-09-04T13:00:31.099Z,21.10
2018-09-04T13:02:59.763Z,21.40
2018-09-04T13:05:28.542Z,20.27
2018-09-04T13:07:57.250Z,21.93
2018-09-04T13:10:25.926Z,21.33
2018-09-04T13:12:54.589Z,20.13
2018-09-04T13:15:23.446Z,22.63
2018-09-04T13:17:52.147Z,24.00
2018-09-04T13:20:20.822Z,22.80
2018-09-04T13:22:49.501Z,24.10
2018-09-04T13:25:18.162Z,24.07
2018-09-04T13:27:46.807Z,29.10
2018-09-04T13:30:15.506Z,24.30
2018-09-04T13:32:44.263Z,24.57
2018-09-04T13:35:12.975Z,24.57
2018-09-04T13:37:41.825Z,24.00
2018-09-04T13:40:10.521Z,22.70
2018-09-04T13:42:39.232Z,20.53
2018-09-04T13:45:08.005Z,19.73
2018-09-04T13:47:36.679Z,17.77
2018-09-04T13:50:05.411Z,18.73
2018-09-04T13:52:34.225Z,19.60
2018-09-04T13:55:03.043Z,20.50
2018-09-04T13:57:31.764Z,20.10
2018-09-04T14:00:00.455Z,19.93
2018-09-04T14:02:29.209Z,20.40
2018-09-04T14:04:57.904Z,21.13
2018-09-04T14:07:26.581Z,20.60
2018-09-04T14:09:55.335Z,19.63
2018-09-04T14:12:24.047Z,18.47
2018-09-04T14:14:52.754Z,17.93
2018-09-04T14:17:22.760Z,17.63
2018-09-04T14:19:51.417Z,19.33
2018-09-04T14:22:20.139Z,18.07
2018-09-04T14:24:48.979Z,18.17
2018-09-04T14:27:17.697Z,18.00
2018-09-04T14:29:53.962Z,18.40
2018-09-04T14:32:15.263Z,17.70
2018-09-04T14:34:43.943Z,17.00
2018-09-04T14:37:12.806Z,17.53
2018-09-04T14:39:41.422Z,16.13
2018-09-04T14:42:10.144Z,17.40
2018-09-04T14:44:38.813Z,16.53
2018-09-04T14:47:07.541Z,16.50
2018-09-04T14:49:36.242Z,15.30
2018-09-04T14:52:05.339Z,15.60
2018-09-04T14:54:34.297Z,14.27
2018-09-04T14:57:03.031Z,13.70
2018-09-04T14:59:31.952Z,15.20
2018-09-04T15:02:00.617Z,14.27
2018-09-04T15:04:29.274Z,15.23
2018-09-04T15:06:57.905Z,13.47
2018-09-04T15:09:26.640Z,13.33
2018-09-04T15:11:55.443Z,13.37
2018-09-04T15:14:24.118Z,14.07
2018-09-04T15:16:54.094Z,15.20
2018-09-04T15:19:22.786Z,15.93
2018-09-04T15:21:51.489Z,14.90
2018-09-04T15:24:20.140Z,13.63
2018-09-04T15:26:48.809Z,13.97
2018-09-04T15:29:17.791Z,13.63
2018-09-04T15:31:46.857Z,14.10
2018-09-04T15:34:15.561Z,13.53
2018-09-04T15:36:44.258Z,13.23
2018-09-04T15:39:12.900Z,13.07
2018-09-04T15:41:41.605Z,11.73
2018-09-04T15:44:10.285Z,12.30
2018-09-04T15:46:38.970Z,12.70
2018-09-04T15:49:13.030Z,11.97
2018-09-04T15:51:41.705Z,13.10
2018-09-04T15:54:10.365Z,12.00
2018-09-04T15:56:39.112Z,11.67
2018-09-04T15:59:07.923Z,11.93
2018-09-04T16:01:36.639Z,11.33
2018-09-04T16:04:05.342Z,9.90
2018-09-04T16:06:34.041Z,10.33
2018-09-04T16:09:02.901Z,10.57
2018-09-04T16:11:31.723Z,9.30
2018-09-04T16:14:00.304Z,9.47
2018-09-04T16:16:29.025Z,8.20
2018-09-04T16:18:57.691Z,7.93
2018-09-04T16:21:26.360Z,8.03
2018-09-04T16:23:55.036Z,8.90
2018-09-04T16:26:23.836Z,8.63
2018-09-04T16:28:52.488Z,8.60
2018-09-04T16:31:21.180Z,7.87
2018-09-04T16:33:49.776Z,9.47
2018-09-04T16:36:18.469Z,8.37
2018-09-04T16:38:47.147Z,7.60
2018-09-04T16:41:15.783Z,8.30
2018-09-04T16:43:44.425Z,8.17
2018-09-04T16:46:13.175Z,8.20
2018-09-04T16:48:41.820Z,7.67
2018-09-04T16:51:10.479Z,9.23
2018-09-04T16:53:39.180Z,8.80
2018-09-04T16:56:07.811Z,8.37
2018-09-04T16:58:36.471Z,8.67
2018-09-04T17:01:05.179Z,8.50
2018-09-04T17:03:33.890Z,8.57
2018-09-04T17:06:02.681Z,7.73
2018-09-04T17:08:31.347Z,9.40
2018-09-04T17:11:00.031Z,7.80
2018-09-04T17:13:28.677Z,6.90
2018-09-04T17:15:57.359Z,8.30
2018-09-04T17:18:26.080Z,8.33
2018-09-04T17:20:54.843Z,7.53
2018-09-04T17:23:23.550Z,7.57
2018-09-04T17:25:52.196Z,8.23
2018-09-04T17:28:20.905Z,8.17
2018-09-04T17:30:49.696Z,7.60
2018-09-04T17:33:18.659Z,8.00
2018-09-04T17:35:47.397Z,8.63
2018-09-04T17:38:16.111Z,7.80
2018-09-04T17:40:44.842Z,7.70
2018-09-04T17:43:13.551Z,7.80
2018-09-04T17:45:42.231Z,9.80
2018-09-04T17:48:10.949Z,7.53
2018-09-04T17:50:39.584Z,7.80
2018-09-04T17:53:08.246Z,7.67
2018-09-04T17:55:36.958Z,8.17
2018-09-04T17:58:05.648Z,7.40
2018-09-04T18:00:34.384Z,7.90
2018-09-04T18:03:03.023Z,7.93
2018-09-04T18:05:31.739Z,7.70
2018-09-04T18:08:00.362Z,7.87
2018-09-04T18:10:29.022Z,8.13
2018-09-04T18:12:57.756Z,7.77
2018-09-04T18:15:26.437Z,8.57
2018-09-04T18:17:55.138Z,8.77
2018-09-04T18:20:23.784Z,9.80
2018-09-04T18:22:52.482Z,8.87
2018-09-04T18:25:21.458Z,10.27
2018-09-04T18:27:50.116Z,9.70
2018-09-04T18:30:18.782Z,9.30
2018-09-04T18:32:47.470Z,10.53
2018-09-04T18:35:16.357Z,9.60
2018-09-04T18:37:45.186Z,9.63
2018-09-04T18:40:14.021Z,9.60
2018-09-04T18:42:42.875Z,10.30
2018-09-04T18:45:21.546Z,9.90
2018-09-04T18:47:50.500Z,10.23
2018-09-04T18:50:19.180Z,10.57
2018-09-04T18:52:48.112Z,10.97
2018-09-04T18:55:16.827Z,11.27
2018-09-04T18:57:45.794Z,11.53
2018-09-04T19:00:14.454Z,11.37
2018-09-04T19:02:43.170Z,12.27
2018-09-04T19:05:11.950Z,14.27
2018-09-04T19:07:40.636Z,13.27
2018-09-04T19:10:09.483Z,14.73
2018-09-04T19:12:38.372Z,13.77
2018-09-04T19:15:07.442Z,13.70
2018-09-04T19:17:36.353Z,15.53
2018-09-04T19:20:05.223Z,16.67
2018-09-04T19:22:34.176Z,17.00
2018-09-04T19:25:02.880Z,16.03
2018-09-04T19:27:31.722Z,15.87
2018-09-04T19:30:00.457Z,17.43
2018-09-04T19:32:29.201Z,16.67
2018-09-04T19:34:58.194Z,18.40
2018-09-04T19:37:27.084Z,17.27
2018-09-04T19:39:55.924Z,16.67
2018-09-04T19:42:24.876Z,18.00
2018-09-04T19:44:53.887Z,17.93
2018-09-04T19:47:22.674Z,17.57
2018-09-04T19:49:51.657Z,16.87
2018-09-04T19:52:20.462Z,15.97
2018-09-04T19:54:49.549Z,15.53
2018-09-04T19:57:18.345Z,17.63
2018-09-04T19:59:47.036Z,16.30
2018-09-04T20:02:16.005Z,13.00
2018-09-04T20:04:45.102Z,11.67
2018-09-04T20:07:14.145Z,10.27
2018-09-04T20:09:42.996Z,9.77
2018-09-04T20:12:12.082Z,8.20
2018-09-04T20:14:40.878Z,9.80
2018-09-04T20:17:09.878Z,8.70
2018-09-04T20:19:38.743Z,8.60
2018-09-04T20:22:09.198Z,7.20
2018-09-04T20:24:38.386Z,6.73
2018-09-04T20:27:07.214Z,6.47
2018-09-04T20:29:36.550Z,7.23
2018-09-04T20:32:05.305Z,7.23
2018-09-04T20:34:34.009Z,6.33
2018-09-04T20:37:03.242Z,5.47
2018-09-04T20:39:32.528Z,6.07
2018-09-04T20:42:01.928Z,5.73
2018-09-04T20:44:30.624Z,5.70
2018-09-04T20:47:00.228Z,5.97
2018-09-04T20:49:28.998Z,5.90
2018-09-04T20:51:57.872Z,5.17
2018-09-04T20:54:26.615Z,5.00
2018-09-04T20:57:30.172Z,5.33
2018-09-04T21:00:12.604Z,5.97
2018-09-04T21:02:52.374Z,5.60
2018-09-04T21:05:32.478Z,5.10
2018-09-04T21:08:43.300Z,5.23
2018-09-04T21:11:12.110Z,4.83
2018-09-04T21:13:41.051Z,4.57
2018-09-04T21:16:09.961Z,4.50
2018-09-04T21:18:38.701Z,5.40
2018-09-04T21:21:07.400Z,6.13
2018-09-04T21:23:36.226Z,4.30
2018-09-04T21:26:04.964Z,5.10
2018-09-04T21:28:33.690Z,4.40
2018-09-04T21:31:02.405Z,4.73
2018-09-04T21:33:31.097Z,4.33
2018-09-04T21:36:00.023Z,5.07
2018-09-04T21:38:29.021Z,4.57
2018-09-04T21:40:57.956Z,4.97
2018-09-04T21:43:26.626Z,4.27
2018-09-04T21:45:55.327Z,3.87
2018-09-04T21:48:24.137Z,4.30
2018-09-04T21:50:52.777Z,4.07
2018-09-04T21:53:21.507Z,4.70
2018-09-04T21:55:50.180Z,5.70
2018-09-04T21:58:18.887Z,4.53
2018-09-04T22:00:47.696Z,4.73
2018-09-04T22:03:16.394Z,4.40
2018-09-04T22:05:45.126Z,7.03
2018-09-04T22:08:14.081Z,4.90
2018-09-04T22:10:43.061Z,4.07
2018-09-04T22:13:12.008Z,4.97
2018-09-04T22:15:40.746Z,4.17
2018-09-04T22:18:09.516Z,5.70
2018-09-04T22:20:38.210Z,4.50
2018-09-04T22:23:07.014Z,4.63
2018-09-04T22:25:35.704Z,5.37
2018-09-04T22:28:04.657Z,4.67
2018-09-04T22:30:33.374Z,5.17
2018-09-04T22:33:02.088Z,4.10
2018-09-04T22:35:30.778Z,4.47
2018-09-04T22:38:06.065Z,4.70
2018-09-04T22:40:34.884Z,4.50
2018-09-04T22:43:03.572Z,6.80
2018-09-04T22:45:32.250Z,5.60
2018-09-04T22:48:01.192Z,5.13
2018-09-04T22:50:35.294Z,4.50
2018-09-04T22:53:04.260Z,5.20
2018-09-04T22:55:32.958Z,5.27
2018-09-04T22:58:01.679Z,4.90
2018-09-04T23:00:30.412Z,5.30
2018-09-04T23:02:59.142Z,4.60
2018-09-04T23:05:27.894Z,4.90
2018-09-04T23:07:56.580Z,4.80
2018-09-04T23:10:25.286Z,4.93
2018-09-04T23:12:54.008Z,5.37
2018-09-04T23:15:22.687Z,5.23
2018-09-04T23:17:51.352Z,5.17
2018-09-04T23:20:20.128Z,4.80
2018-09-04T23:22:48.799Z,5.80
2018-09-04T23:25:17.564Z,5.20
2018-09-04T23:27:46.291Z,5.17
2018-09-04T23:30:14.992Z,5.23
2018-09-04T23:32:45.064Z,5.53
2018-09-04T23:35:13.760Z,5.47
2018-09-04T23:37:42.459Z,5.63
2018-09-04T23:40:11.273Z,5.20
2018-09-04T23:42:39.932Z,5.57
2018-09-04T23:45:08.674Z,6.43
2018-09-04T23:47:37.380Z,5.67
2018-09-04T23:50:06.837Z,6.30
2018-09-04T23:52:35.526Z,5.90
2018-09-04T23:55:04.473Z,6.10
2018-09-04T23:57:33.419Z,6.10
